Time,TemperatureF,DewpointF,PressureIn,WindDirection,WindDirectionDegrees,WindSpeedMPH,WindSpeedGustMPH,Humidity,HourlyPrecipIn,Conditions,Clouds,dailyrainin,SoftwareType,DateUTC
2013-06-23 00:01:00,65.0,55.0,30.21,South,184,0.0,0.0,71,0.00,,,0.00,,2013-06-23 04:01:00,
2013-06-23 00:11:00,65.0,55.0,30.21,South,184,0.0,0.0,70,0.00,,,0.00,,2013-06-23 04:11:00,
2013-06-23 00:21:00,65.0,55.0,30.21,South,184,0.0,0.0,70,0.00,,,0.00,,2013-06-23 04:21:00,
2013-06-23 00:31:00,65.0,55.0,30.21,South,184,0.0,0.0,70,0.00,,,0.00,,2013-06-23 04:31:00,
2013-06-23 00:42:00,65.0,55.0,30.21,South,184,0.0,0.0,70,0.00,,,0.00,,2013-06-23 04:42:00,
2013-06-23 00:52:00,65.0,55.0,30.21,South,184,0.0,0.0,70,0.00,,,0.00,,2013-06-23 04:52:00,
2013-06-23 01:01:00,65.0,55.0,30.21,South,184,0.0,0.0,69,0.00,,,0.00,,2013-06-23 05:01:00,
2013-06-23 01:11:00,65.0,55.0,30.21,South,184,0.0,0.0,70,0.00,,,0.00,,2013-06-23 05:11:00,
2013-06-23 01:22:00,64.0,55.0,30.21,South,173,0.0,0.0,72,0.00,,,0.00,,2013-06-23 05:22:00,
2013-06-23 01:32:00,64.0,55.0,30.20,South,173,0.0,0.0,72,0.00,,,0.00,,2013-06-23 05:32:00,
2013-06-23 01:41:00,64.0,55.0,30.21,South,180,0.0,0.0,72,0.00,,,0.00,,2013-06-23 05:41:00,
2013-06-23 01:51:00,64.0,55.0,30.20,South,179,0.0,0.0,73,0.00,,,0.00,,2013-06-23 05:51:00,
2013-06-23 02:02:00,64.0,55.0,30.21,South,180,0.0,0.0,72,0.00,,,0.00,,2013-06-23 06:02:00,
2013-06-23 02:12:00,64.0,56.0,30.21,South,180,0.0,0.0,74,0.00,,,0.00,,2013-06-23 06:12:00,
2013-06-23 02:22:00,63.0,55.0,30.20,South,180,0.0,0.0,75,0.00,,,0.00,,2013-06-23 06:22:00,
2013-06-23 02:33:00,63.0,55.0,30.20,South,180,0.0,0.0,75,0.00,,,0.00,,2013-06-23 06:33:00,
2013-06-23 02:43:00,63.0,55.0,30.19,South,179,0.0,0.0,76,0.00,,,0.00,,2013-06-23 06:43:00,
2013-06-23 02:52:00,63.0,56.0,30.19,South,179,0.0,0.0,77,0.00,,,0.00,,2013-06-23 06:52:00,
2013-06-23 03:02:00,63.0,56.0,30.19,South,180,0.0,0.0,77,0.00,,,0.00,,2013-06-23 07:02:00,
2013-06-23 03:12:00,63.0,56.0,30.19,South,180,0.0,0.0,78,0.00,,,0.00,,2013-06-23 07:12:00,
2013-06-23 03:34:00,62.0,55.0,30.18,South,180,0.0,0.0,78,0.00,,,0.00,,2013-06-23 07:34:00,
2013-06-23 03:43:00,62.0,55.0,30.18,South,180,0.0,0.0,78,0.00,,,0.00,,2013-06-23 07:43:00,
2013-06-23 03:53:00,62.0,55.0,30.18,South,180,0.0,0.0,79,0.00,,,0.00,,2013-06-23 07:53:00,
2013-06-23 04:02:00,62.0,55.0,30.18,South,180,0.0,0.0,79,0.00,,,0.00,,2013-06-23 08:02:00,
2013-06-23 04:12:00,62.0,56.0,30.18,South,179,0.0,0.0,80,0.00,,,0.00,,2013-06-23 08:12:00,
2013-06-23 04:22:00,62.0,56.0,30.18,South,179,0.0,0.0,80,0.00,,,0.00,,2013-06-23 08:22:00,
2013-06-23 04:34:00,62.0,56.0,30.18,South,180,0.0,0.0,81,0.00,,,0.00,,2013-06-23 08:34:00,
2013-06-23 04:43:00,62.0,56.0,30.17,South,179,0.0,0.0,82,0.00,,,0.00,,2013-06-23 08:43:00,
2013-06-23 04:53:00,62.0,56.0,30.18,South,179,0.0,0.0,82,0.00,,,0.00,,2013-06-23 08:53:00,
2013-06-23 05:02:00,62.0,56.0,30.18,South,180,0.0,0.0,82,0.00,,,0.00,,2013-06-23 09:02:00,
2013-06-23 05:12:00,62.0,57.0,30.18,South,179,0.0,0.0,83,0.00,,,0.00,,2013-06-23 09:12:00,
2013-06-23 05:34:00,62.0,57.0,30.18,South,180,0.0,0.0,84,0.00,,,0.00,,2013-06-23 09:34:00,
2013-06-23 05:43:00,62.0,57.0,30.18,South,179,0.0,0.0,84,0.00,,,0.00,,2013-06-23 09:43:00,
2013-06-23 05:53:00,63.0,58.0,30.19,South,179,0.0,0.0,85,0.00,,,0.00,,2013-06-23 09:53:00,
2013-06-23 06:02:00,63.0,58.0,30.19,South,179,0.0,0.0,85,0.00,,,0.00,,2013-06-23 10:02:00,
2013-06-23 06:11:00,63.0,59.0,30.19,SSW,209,0.0,0.0,86,0.00,,,0.00,,2013-06-23 10:11:00,
2013-06-23 06:22:00,63.0,58.0,30.19,SSW,209,0.0,0.0,85,0.00,,,0.00,,2013-06-23 10:22:00,
2013-06-23 06:34:00,64.0,60.0,30.19,SSW,209,0.0,0.0,86,0.00,,,0.00,,2013-06-23 10:34:00,
2013-06-23 06:43:00,64.0,60.0,30.19,SSW,209,0.0,0.0,86,0.00,,,0.00,,2013-06-23 10:43:00,
2013-06-23 06:53:00,65.0,61.0,30.19,SSW,209,0.0,0.0,86,0.00,,,0.00,,2013-06-23 10:53:00,
2013-06-23 07:02:00,65.0,61.0,30.19,SSW,209,0.0,0.0,86,0.00,,,0.00,,2013-06-23 11:02:00,
2013-06-23 07:11:00,66.0,61.0,30.19,SSW,209,0.0,0.0,85,0.00,,,0.00,,2013-06-23 11:11:00,
2013-06-23 07:22:00,66.0,61.0,30.20,SSW,209,0.0,0.0,85,0.00,,,0.00,,2013-06-23 11:22:00,
2013-06-23 07:33:00,66.0,61.0,30.20,SSW,209,0.0,0.0,84,0.00,,,0.00,,2013-06-23 11:33:00,
2013-06-23 07:43:00,67.0,62.0,30.20,SSW,209,0.0,0.0,83,0.00,,,0.00,,2013-06-23 11:43:00,
2013-06-23 07:53:00,67.0,62.0,30.20,SSW,209,0.0,0.0,83,0.00,,,0.00,,2013-06-23 11:53:00,
2013-06-23 08:01:00,68.0,62.0,30.20,SSW,209,0.0,0.0,82,0.00,,,0.00,,2013-06-23 12:01:00,
2013-06-23 08:12:00,69.0,63.0,30.20,SSW,209,0.0,0.0,81,0.00,,,0.00,,2013-06-23 12:12:00,
2013-06-23 08:22:00,70.0,64.0,30.21,SSW,210,0.0,0.0,80,0.00,,,0.00,,2013-06-23 12:22:00,
2013-06-23 08:33:00,70.0,63.0,30.21,SSE,157,0.0,0.0,79,0.00,,,0.00,,2013-06-23 12:33:00,
2013-06-23 09:43:00,74.0,65.0,30.21,SSW,202,0.0,1.0,74,0.00,,,0.00,,2013-06-23 13:43:00,
2013-06-23 09:53:00,75.0,65.0,30.21,West,281,0.0,6.0,72,0.00,,,0.00,,2013-06-23 13:53:00,
2013-06-23 10:05:00,76.0,65.0,30.20,WNW,286,1.0,5.0,69,0.00,,,0.00,,2013-06-23 14:05:00,
2013-06-23 10:11:00,76.0,65.0,30.20,WSW,242,0.0,5.0,69,0.00,,,0.00,,2013-06-23 14:11:00,
2013-06-23 10:34:00,77.0,67.0,30.19,East,83,0.0,1.0,72,0.00,,,0.00,,2013-06-23 14:34:00,
2013-06-23 10:44:00,78.0,68.0,30.19,WNW,293,0.0,1.0,72,0.00,,,0.00,,2013-06-23 14:44:00,
2013-06-23 10:52:00,80.0,68.0,30.19,SSE,166,0.0,3.0,68,0.00,,,0.00,,2013-06-23 14:52:00,
2013-06-23 11:05:00,82.0,69.0,30.19,West,261,0.0,2.0,66,0.00,,,0.00,,2013-06-23 15:05:00,
2013-06-23 11:12:00,83.0,69.0,30.19,SSW,198,0.0,3.0,62,0.00,,,0.00,,2013-06-23 15:12:00,
2013-06-23 11:23:00,84.0,69.0,30.19,SW,228,0.0,3.0,61,0.00,,,0.00,,2013-06-23 15:23:00,
2013-06-23 11:35:00,84.0,68.0,30.18,WSW,244,0.0,2.0,59,0.00,,,0.00,,2013-06-23 15:35:00,
2013-06-23 11:43:00,85.0,68.0,30.18,SSE,167,0.0,2.0,56,0.00,,,0.00,,2013-06-23 15:43:00,
2013-06-23 11:52:00,87.0,69.0,30.18,SE,141,0.0,3.0,56,0.00,,,0.00,,2013-06-23 15:52:00,
2013-06-23 12:06:00,87.0,70.0,30.18,South,184,0.0,2.0,57,0.00,,,0.00,,2013-06-23 16:06:00,
2013-06-23 12:12:00,87.0,68.0,30.18,SW,218,0.0,3.0,54,0.00,,,0.00,,2013-06-23 16:12:00,
2013-06-23 12:36:00,88.0,68.0,30.17,SSW,201,0.0,2.0,51,0.00,,,0.00,,2013-06-23 16:36:00,
2013-06-23 12:43:00,88.0,66.0,30.17,North,360,0.0,6.0,48,0.00,,,0.00,,2013-06-23 16:43:00,
2013-06-23 12:53:00,87.0,64.0,30.17,NNW,335,0.0,3.0,47,0.00,,,0.00,,2013-06-23 16:53:00,
2013-06-23 13:06:00,89.0,66.0,30.16,South,185,0.0,1.0,47,0.00,,,0.00,,2013-06-23 17:06:00,
2013-06-23 13:33:00,90.0,64.0,30.16,WSW,253,0.0,3.0,43,0.00,,,0.00,,2013-06-23 17:33:00,
2013-06-23 13:43:00,90.0,65.0,30.15,West,265,0.0,5.0,44,0.00,,,0.00,,2013-06-23 17:43:00,
2013-06-23 13:53:00,90.0,64.0,30.15,SW,232,0.0,3.0,42,0.00,,,0.00,,2013-06-23 17:53:00,
2013-06-23 14:01:00,91.0,67.0,30.14,SSW,209,0.0,1.0,45,0.00,,,0.00,,2013-06-23 18:01:00,
2013-06-23 14:22:00,91.0,66.0,30.14,South,171,0.0,3.0,44,0.00,,,0.00,,2013-06-23 18:22:00,
2013-06-23 14:34:00,90.0,64.0,30.14,South,191,0.0,6.0,43,0.00,,,0.00,,2013-06-23 18:34:00,
2013-06-23 14:43:00,92.0,67.0,30.14,NNW,331,0.0,3.0,44,0.00,,,0.00,,2013-06-23 18:43:00,
2013-06-23 14:53:00,91.0,63.0,30.14,SW,215,1.0,4.0,40,0.00,,,0.00,,2013-06-23 18:53:00,
2013-06-23 15:01:00,91.0,65.0,30.13,South,175,0.0,4.0,43,0.00,,,0.00,,2013-06-23 19:01:00,
2013-06-23 15:11:00,92.0,65.0,30.13,SW,232,1.0,6.0,41,0.00,,,0.00,,2013-06-23 19:11:00,
2013-06-23 15:32:00,91.0,67.0,30.12,NE,38,1.0,4.0,45,0.00,,,0.00,,2013-06-23 19:32:00,
2013-06-23 15:43:00,91.0,67.0,30.11,SSW,205,0.0,1.0,45,0.00,,,0.00,,2013-06-23 19:43:00,
2013-06-23 15:53:00,91.0,67.0,30.11,SSW,197,0.0,3.0,46,0.00,,,0.00,,2013-06-23 19:53:00,
2013-06-23 16:02:00,90.0,68.0,30.11,WNW,287,0.0,3.0,48,0.00,,,0.00,,2013-06-23 20:02:00,
2013-06-23 16:12:00,90.0,68.0,30.11,SSW,202,0.0,5.0,49,0.00,,,0.00,,2013-06-23 20:12:00,
2013-06-23 16:24:00,88.0,68.0,30.11,West,278,1.0,3.0,51,0.00,,,0.00,,2013-06-23 20:24:00,
2013-06-23 16:42:00,87.0,69.0,30.11,South,190,1.0,4.0,56,0.00,,,0.00,,2013-06-23 20:42:00,
2013-06-23 16:53:00,87.0,68.0,30.10,WSW,238,1.0,7.0,54,0.00,,,0.00,,2013-06-23 20:53:00,
2013-06-23 17:01:00,87.0,69.0,30.10,WSW,238,1.0,6.0,55,0.00,,,0.00,,2013-06-23 21:01:00,
2013-06-23 17:22:00,85.0,69.0,30.10,SSW,195,1.0,7.0,59,0.00,,,0.00,,2013-06-23 21:22:00,
2013-06-23 17:34:00,84.0,68.0,30.11,SW,232,1.0,9.0,59,0.00,,,0.00,,2013-06-23 21:34:00,
2013-06-23 17:44:00,84.0,69.0,30.11,WSW,248,1.0,5.0,61,0.00,,,0.00,,2013-06-23 21:44:00,
2013-06-23 17:52:00,83.0,68.0,30.11,West,270,0.0,6.0,61,0.00,,,0.00,,2013-06-23 21:52:00,
2013-06-23 18:01:00,83.0,69.0,30.11,SW,227,0.0,6.0,62,0.00,,,0.00,,2013-06-23 22:01:00,
2013-06-23 18:12:00,82.0,68.0,30.10,SW,214,2.0,5.0,62,0.00,,,0.00,,2013-06-23 22:12:00,
2013-06-23 18:32:00,81.0,68.0,30.10,WSW,253,1.0,7.0,65,0.00,,,0.00,,2013-06-23 22:32:00,
2013-06-23 18:43:00,80.0,68.0,30.10,SW,232,2.0,7.0,67,0.00,,,0.00,,2013-06-23 22:43:00,
2013-06-23 18:53:00,80.0,68.0,30.09,WSW,240,1.0,7.0,67,0.00,,,0.00,,2013-06-23 22:53:00,
2013-06-23 19:01:00,80.0,68.0,30.09,South,190,1.0,4.0,68,0.00,,,0.00,,2013-06-23 23:01:00,
2013-06-23 19:11:00,79.0,68.0,30.09,SSW,209,1.0,4.0,69,0.00,,,0.00,,2013-06-23 23:11:00,
2013-06-23 19:22:00,79.0,68.0,30.09,NNE,13,0.0,7.0,69,0.00,,,0.00,,2013-06-23 23:22:00,
2013-06-23 19:33:00,79.0,68.0,30.09,SSW,198,0.0,7.0,69,0.00,,,0.00,,2013-06-23 23:33:00,
2013-06-23 19:44:00,79.0,68.0,30.09,WSW,250,0.0,8.0,68,0.00,,,0.00,,2013-06-23 23:44:00,
2013-06-23 19:52:00,78.0,67.0,30.09,SW,228,1.0,4.0,69,0.00,,,0.00,,2013-06-23 23:52:00,
2013-06-23 20:01:00,78.0,67.0,30.09,South,191,0.0,4.0,70,0.00,,,0.00,,2013-06-24 00:01:00,
2013-06-23 20:11:00,77.0,67.0,30.10,South,183,0.0,7.0,71,0.00,,,0.00,,2013-06-24 00:11:00,
2013-06-23 20:33:00,76.0,67.0,30.09,SW,218,1.0,6.0,73,0.00,,,0.00,,2013-06-24 00:33:00,
2013-06-23 20:42:00,76.0,67.0,30.09,SSW,196,0.0,4.0,74,0.00,,,0.00,,2013-06-24 00:42:00,
2013-06-23 20:52:00,75.0,67.0,30.10,East,96,1.0,6.0,75,0.00,,,0.00,,2013-06-24 00:52:00,
2013-06-23 21:02:00,75.0,67.0,30.10,SW,233,0.0,4.0,76,0.00,,,0.00,,2013-06-24 01:02:00,
2013-06-23 21:11:00,74.0,66.0,30.11,SSW,198,0.0,0.0,77,0.00,,,0.00,,2013-06-24 01:11:00,
2013-06-23 21:22:00,74.0,67.0,30.11,SW,220,0.0,0.0,78,0.00,,,0.00,,2013-06-24 01:22:00,
2013-06-23 21:32:00,74.0,67.0,30.11,WSW,237,0.0,0.0,79,0.00,,,0.00,,2013-06-24 01:32:00,
2013-06-23 21:42:00,73.0,66.0,30.10,West,277,0.0,0.0,79,0.00,,,0.00,,2013-06-24 01:42:00,
2013-06-23 21:53:00,73.0,66.0,30.10,West,267,0.0,0.0,80,0.00,,,0.00,,2013-06-24 01:53:00,
2013-06-23 22:02:00,73.0,67.0,30.11,West,265,0.0,0.0,81,0.00,,,0.00,,2013-06-24 02:02:00,
2013-06-23 22:11:00,72.0,66.0,30.11,WSW,255,0.0,0.0,81,0.00,,,0.00,,2013-06-24 02:11:00,
2013-06-23 22:42:00,72.0,67.0,30.12,WSW,254,0.0,0.0,83,0.00,,,0.00,,2013-06-24 02:42:00,
2013-06-23 22:53:00,72.0,67.0,30.12,WSW,253,0.0,0.0,83,0.00,,,0.00,,2013-06-24 02:53:00,
2013-06-23 23:01:00,71.0,66.0,30.11,WSW,254,0.0,0.0,84,0.00,,,0.00,,2013-06-24 03:01:00,
2013-06-23 23:11:00,71.0,66.0,30.11,WSW,254,0.0,0.0,84,0.00,,,0.00,,2013-06-24 03:11:00,
2013-06-23 23:22:00,71.0,66.0,30.11,WSW,254,0.0,0.0,84,0.00,,,0.00,,2013-06-24 03:22:00,
2013-06-23 23:33:00,71.0,66.0,30.11,WSW,254,0.0,0.0,85,0.00,,,0.00,,2013-06-24 03:33:00,
2013-06-23 23:43:00,71.0,66.0,30.10,WSW,254,0.0,0.0,85,0.00,,,0.00,,2013-06-24 03:43:00,
2013-06-23 23:53:00,71.0,66.0,30.11,WSW,254,0.0,0.0,85,0.00,,,0.00,,2013-06-24 03:53:00,